createdAt,value
2017-03-11T00:00:11.461Z,29.2
2017-03-11T00:01:12.563Z,29.2
2017-03-11T00:02:11.607Z,29.2
2017-03-11T00:03:11.589Z,29.2
2017-03-11T00:04:11.633Z,29.2
2017-03-11T00:05:12.628Z,29.2
2017-03-11T00:06:11.713Z,29.2
2017-03-11T00:07:12.795Z,29.2
2017-03-11T00:08:12.822Z,29.2
2017-03-11T00:09:11.841Z,29.2
2017-03-11T00:10:11.936Z,29.2
2017-03-11T00:11:11.889Z,29.2
2017-03-11T00:12:12.030Z,29.2
2017-03-11T00:13:12.156Z,29.2
2017-03-11T00:14:13.168Z,29.2
2017-03-11T00:15:12.276Z,29.2
2017-03-11T00:16:12.288Z,29.2
2017-03-11T00:17:12.444Z,29.2
2017-03-11T00:18:12.507Z,29.2
2017-03-11T00:19:12.446Z,29.2
2017-03-11T00:20:12.593Z,29.2
2017-03-11T00:21:13.634Z,29.2
2017-03-11T00:22:12.666Z,29.2
2017-03-11T00:23:12.728Z,29.2
2017-03-11T00:24:13.795Z,29.2
2017-03-11T00:25:13.877Z,29.2
2017-03-11T00:26:12.978Z,29.2
2017-03-11T00:27:14.018Z,29.2
2017-03-11T00:28:13.980Z,29.2
2017-03-11T00:29:14.144Z,29.2
2017-03-11T00:30:14.106Z,29.2
2017-03-11T00:31:14.260Z,29.2
2017-03-11T00:32:13.210Z,29.2
2017-03-11T00:33:14.267Z,29.2
2017-03-11T00:34:13.290Z,29.2
2017-03-11T00:35:14.507Z,29.2
2017-03-11T00:36:14.462Z,29.2
2017-03-11T00:37:13.455Z,29.2
2017-03-11T00:38:14.536Z,29.2
2017-03-11T00:39:13.574Z,29.2
2017-03-11T00:40:14.681Z,29.2
2017-03-11T00:41:13.625Z,29.2
2017-03-11T00:42:14.688Z,29.2
2017-03-11T00:43:13.721Z,29.2
2017-03-11T00:44:13.853Z,29.2
2017-03-11T00:45:14.890Z,29.2
2017-03-11T00:46:14.969Z,29.2
2017-03-11T00:47:13.999Z,29.2
2017-03-11T00:48:14.078Z,29.2
2017-03-11T00:49:15.236Z,29.2
2017-03-11T00:50:14.196Z,29.2
2017-03-11T00:51:14.228Z,29.2
2017-03-11T00:52:15.353Z,29.2
2017-03-11T00:53:15.279Z,29.2
2017-03-11T00:54:15.400Z,29.2
2017-03-11T00:55:14.382Z,29.2
2017-03-11T00:56:14.338Z,29.2
2017-03-11T00:57:14.395Z,29.2
2017-03-11T00:58:15.518Z,29.2
2017-03-11T00:59:15.619Z,29.2
2017-03-11T01:00:15.582Z,29.2
2017-03-11T01:01:14.568Z,29.2
2017-03-11T01:02:15.756Z,29.2
2017-03-11T01:03:15.781Z,29.2
2017-03-11T01:04:15.828Z,29.2
2017-03-11T01:05:15.849Z,29.2
2017-03-11T01:06:15.899Z,29.2
2017-03-11T01:07:14.896Z,29.2
2017-03-11T01:08:14.905Z,29.2
2017-03-11T01:09:14.949Z,29.2
2017-03-11T01:10:16.007Z,29.2
2017-03-11T01:11:16.102Z,29.2
2017-03-11T01:12:16.150Z,29.2
2017-03-11T01:13:16.199Z,29.1
2017-03-11T01:14:16.280Z,29.1
2017-03-11T01:15:15.192Z,29.2
2017-03-11T01:16:15.305Z,29.1
2017-03-11T01:17:16.300Z,29.2
2017-03-11T01:18:15.457Z,29.2
2017-03-11T01:19:16.476Z,29.2
2017-03-11T01:20:16.481Z,29.2
2017-03-11T01:21:15.487Z,29.2
2017-03-11T01:22:15.682Z,29.1
2017-03-11T01:23:16.719Z,29.2
2017-03-11T01:24:15.799Z,29.1
2017-03-11T01:25:16.903Z,29.1
2017-03-11T01:26:17.014Z,29.1
2017-03-11T01:27:15.845Z,29.1
2017-03-11T01:28:16.977Z,29.1
2017-03-11T01:29:15.903Z,29.1
2017-03-11T01:30:17.076Z,29.1
2017-03-11T01:31:16.119Z,29.1
2017-03-11T01:32:17.204Z,29.1
2017-03-11T01:33:17.281Z,29.1
2017-03-11T01:34:16.311Z,29.1
2017-03-11T01:35:16.299Z,29.1
2017-03-11T01:36:16.358Z,29.1
2017-03-11T01:37:16.440Z,29.1
2017-03-11T01:38:16.631Z,29.1
2017-03-11T01:39:17.748Z,29.1
2017-03-11T01:40:16.873Z,29.1
2017-03-11T01:41:17.880Z,29.1
2017-03-11T01:42:16.929Z,29.1
2017-03-11T01:43:17.999Z,29.1
2017-03-11T01:44:16.875Z,29.1
2017-03-11T01:45:16.975Z,29.1
2017-03-11T01:46:17.227Z,29.1
2017-03-11T01:47:18.183Z,29.1
2017-03-11T01:48:18.213Z,29.1
2017-03-11T01:49:17.247Z,29.1
2017-03-11T01:50:17.213Z,29.1
2017-03-11T01:51:18.461Z,29.1
2017-03-11T01:52:18.625Z,29.1
2017-03-11T01:53:18.394Z,29.1
2017-03-11T01:54:17.404Z,29.1
2017-03-11T01:55:17.493Z,29.1
2017-03-11T01:56:18.721Z,29.1
2017-03-11T01:57:18.689Z,29.1
2017-03-11T01:58:19.009Z,29.1
2017-03-11T01:59:18.902Z,29.1
2017-03-11T02:00:18.873Z,29.1
2017-03-11T02:01:18.958Z,29.1
2017-03-11T02:02:18.902Z,29.1
2017-03-11T02:03:18.996Z,29.1
2017-03-11T02:04:19.199Z,29.1
2017-03-11T02:05:18.103Z,29.1
2017-03-11T02:06:19.121Z,29.1
2017-03-11T02:07:18.178Z,29.1
2017-03-11T02:08:18.261Z,29.1
2017-03-11T02:09:18.273Z,29.1
2017-03-11T02:10:18.552Z,29.1
2017-03-11T02:11:19.342Z,29.1
2017-03-11T02:12:19.468Z,29.1
2017-03-11T02:13:18.979Z,29.1
2017-03-11T02:14:19.455Z,29.1
2017-03-11T02:15:18.399Z,29.1
2017-03-11T02:16:19.653Z,29.1
2017-03-11T02:17:19.659Z,29.1
2017-03-11T02:18:18.524Z,29.1
2017-03-11T02:19:18.627Z,29.1
2017-03-11T02:20:19.723Z,29.1
2017-03-11T02:21:19.023Z,29.1
2017-03-11T02:22:18.730Z,29.1
2017-03-11T02:23:19.922Z,29.1
2017-03-11T02:24:19.988Z,29.1
2017-03-11T02:25:19.995Z,29.1
2017-03-11T02:26:19.122Z,29.1
2017-03-11T02:27:19.185Z,29.1
2017-03-11T02:28:19.087Z,29.1
2017-03-11T02:29:20.308Z,29.1
2017-03-11T02:30:20.308Z,29.1
2017-03-11T02:31:19.210Z,29.1
2017-03-11T02:32:19.242Z,29.1
2017-03-11T02:33:19.562Z,29.1
2017-03-11T02:34:19.323Z,29.1
2017-03-11T02:35:19.415Z,29.1
2017-03-11T02:36:19.489Z,29.1
2017-03-11T02:37:19.684Z,29.1
2017-03-11T02:38:20.745Z,29.1
2017-03-11T02:39:20.891Z,29.1
2017-03-11T02:40:19.785Z,29.1
2017-03-11T02:41:20.876Z,29.1
2017-03-11T02:42:19.921Z,29.1
2017-03-11T02:43:20.979Z,29.1
2017-03-11T02:44:19.876Z,29.1
2017-03-11T02:45:21.229Z,29.1
2017-03-11T02:46:21.180Z,29.1
2017-03-11T02:47:20.214Z,29.1
2017-03-11T02:48:20.227Z,29.1
2017-03-11T02:49:20.193Z,29.1
2017-03-11T02:50:21.348Z,29.1
2017-03-11T02:51:20.505Z,29.1
2017-03-11T02:52:21.415Z,29.1
2017-03-11T02:53:21.471Z,29.1
2017-03-11T02:54:20.595Z,29.1
2017-03-11T02:55:20.611Z,29.1
2017-03-11T02:56:21.686Z,29.1
2017-03-11T02:57:20.769Z,29.1
2017-03-11T02:58:20.737Z,29
2017-03-11T02:59:21.834Z,29
2017-03-11T03:00:20.820Z,29
2017-03-11T03:01:22.005Z,29.1
2017-03-11T03:02:22.141Z,29
2017-03-11T03:03:21.198Z,29
2017-03-11T03:04:22.226Z,29
2017-03-11T03:05:21.237Z,29
2017-03-11T03:06:21.295Z,29
2017-03-11T03:07:22.319Z,29
2017-03-11T03:08:22.308Z,29
2017-03-11T03:09:22.571Z,29
2017-03-11T03:10:21.409Z,29
2017-03-11T03:11:22.502Z,29
2017-03-11T03:12:21.541Z,29
2017-03-11T03:13:22.569Z,29
2017-03-11T03:14:21.600Z,29
2017-03-11T03:15:22.778Z,29
2017-03-11T03:16:21.696Z,29
2017-03-11T03:17:22.736Z,29
2017-03-11T03:18:22.897Z,29
2017-03-11T03:19:22.861Z,29
2017-03-11T03:20:21.797Z,29.1
2017-03-11T03:21:22.148Z,29
2017-03-11T03:22:21.965Z,29
2017-03-11T03:23:21.978Z,29
2017-03-11T03:24:22.082Z,29
2017-03-11T03:25:23.184Z,29
2017-03-11T03:26:23.253Z,29
2017-03-11T03:27:22.313Z,29
2017-03-11T03:28:23.354Z,29
2017-03-11T03:29:23.464Z,29
2017-03-11T03:30:22.325Z,29
2017-03-11T03:31:22.406Z,29
2017-03-11T03:32:23.612Z,29
2017-03-11T03:33:23.748Z,29
2017-03-11T03:34:22.560Z,29
2017-03-11T03:35:23.602Z,29
2017-03-11T03:36:23.766Z,29
2017-03-11T03:37:22.678Z,29
2017-03-11T03:38:23.899Z,29
2017-03-11T03:39:23.919Z,29
2017-03-11T03:40:22.801Z,29
2017-03-11T03:41:23.960Z,29
2017-03-11T03:42:22.916Z,29
2017-03-11T03:43:24.123Z,29
2017-03-11T03:44:23.097Z,29
2017-03-11T03:45:23.141Z,29
2017-03-11T03:46:23.098Z,29
2017-03-11T03:47:23.173Z,29
2017-03-11T03:48:23.183Z,29
2017-03-11T03:49:24.297Z,29
2017-03-11T03:50:23.235Z,29
2017-03-11T03:51:23.402Z,29
2017-03-11T03:52:23.515Z,29
2017-03-11T03:53:24.577Z,29
2017-03-11T03:54:24.597Z,29
2017-03-11T03:55:24.781Z,29
2017-03-11T03:56:24.715Z,29
2017-03-11T03:57:24.770Z,29
2017-03-11T03:58:24.855Z,29
2017-03-11T03:59:23.876Z,29
2017-03-11T04:00:23.861Z,29
2017-03-11T04:01:23.933Z,29
2017-03-11T04:02:24.019Z,29
2017-03-11T04:03:24.063Z,29
2017-03-11T04:04:24.071Z,29
2017-03-11T04:05:24.160Z,29
2017-03-11T04:06:25.276Z,29
2017-03-11T04:07:25.310Z,29
2017-03-11T04:08:24.280Z,29
2017-03-11T04:09:25.458Z,29
2017-03-11T04:10:24.282Z,29
2017-03-11T04:11:25.543Z,29
2017-03-11T04:12:24.432Z,29
2017-03-11T04:13:25.676Z,29
2017-03-11T04:14:25.710Z,29
2017-03-11T04:15:24.708Z,29
2017-03-11T04:16:25.216Z,29
2017-03-11T04:17:25.839Z,29
2017-03-11T04:18:24.860Z,29
2017-03-11T04:19:25.888Z,29
2017-03-11T04:20:26.052Z,29
2017-03-11T04:21:26.131Z,29
2017-03-11T04:22:26.100Z,29
2017-03-11T04:23:25.131Z,29
2017-03-11T04:24:25.230Z,29
2017-03-11T04:25:26.318Z,29
2017-03-11T04:26:26.372Z,29
2017-03-11T04:27:25.445Z,29
2017-03-11T04:28:25.538Z,29
2017-03-11T04:29:25.508Z,29
2017-03-11T04:30:26.691Z,29
2017-03-11T04:31:26.655Z,29
2017-03-11T04:32:25.730Z,29
2017-03-11T04:33:26.697Z,29
2017-03-11T04:34:26.702Z,29
2017-03-11T04:35:25.763Z,29
2017-03-11T04:36:26.830Z,29
2017-03-11T04:37:25.898Z,29
2017-03-11T04:38:26.947Z,29
2017-03-11T04:39:25.966Z,29
2017-03-11T04:40:27.080Z,29
2017-03-11T04:41:27.077Z,29
2017-03-11T04:42:26.131Z,29
2017-03-11T04:43:26.130Z,29
2017-03-11T04:44:26.060Z,29
2017-03-11T04:45:27.175Z,29
2017-03-11T04:46:26.064Z,29
2017-03-11T04:47:26.135Z,29
2017-03-11T04:48:27.284Z,29
2017-03-11T04:49:26.351Z,29
2017-03-11T04:50:32.429Z,29
2017-03-11T04:51:27.477Z,29
2017-03-11T04:52:26.458Z,29
2017-03-11T04:53:27.510Z,29
2017-03-11T04:54:27.600Z,29
2017-03-11T04:55:26.599Z,28.9
2017-03-11T04:56:27.829Z,28.9
2017-03-11T04:57:27.816Z,28.9
2017-03-11T04:58:26.818Z,28.9
2017-03-11T04:59:26.933Z,28.9
2017-03-11T05:00:26.946Z,28.9
2017-03-11T05:01:28.186Z,28.9
2017-03-11T05:02:28.351Z,28.9
2017-03-11T05:03:27.133Z,28.9
2017-03-11T05:04:27.106Z,28.9
2017-03-11T05:05:27.113Z,28.9
2017-03-11T05:06:27.221Z,28.9
2017-03-11T05:07:27.202Z,28.9
2017-03-11T05:08:27.484Z,28.9
2017-03-11T05:09:27.292Z,28.9
2017-03-11T05:10:28.396Z,28.9
2017-03-11T05:11:28.501Z,28.9
2017-03-11T05:12:28.466Z,28.9
2017-03-11T05:13:27.550Z,28.9
2017-03-11T05:14:27.627Z,28.9
2017-03-11T05:15:28.659Z,28.9
2017-03-11T05:16:28.647Z,28.9
2017-03-11T05:17:27.618Z,28.9
2017-03-11T05:18:27.690Z,28.9
2017-03-11T05:19:28.818Z,28.9
2017-03-11T05:20:28.169Z,28.9
2017-03-11T05:21:28.865Z,28.9
2017-03-11T05:22:27.791Z,28.9
2017-03-11T05:23:29.032Z,28.9
2017-03-11T05:24:28.042Z,28.9
2017-03-11T05:25:29.171Z,28.9
2017-03-11T05:26:28.404Z,28.9
2017-03-11T05:27:28.104Z,28.9
2017-03-11T05:28:29.199Z,28.9
2017-03-11T05:29:29.306Z,28.9
2017-03-11T05:30:28.278Z,28.9
2017-03-11T05:31:28.292Z,28.9
2017-03-11T05:32:29.629Z,28.9
2017-03-11T05:33:29.382Z,28.9
2017-03-11T05:34:28.342Z,28.9
2017-03-11T05:35:29.513Z,28.9
2017-03-11T05:36:29.547Z,28.9
2017-03-11T05:37:29.547Z,28.9
2017-03-11T05:38:29.995Z,28.9
2017-03-11T05:39:28.582Z,28.9
2017-03-11T05:40:29.772Z,28.9
2017-03-11T05:41:28.677Z,28.9
2017-03-11T05:42:29.804Z,28.9
2017-03-11T05:43:29.907Z,28.9
2017-03-11T05:44:30.102Z,28.9
2017-03-11T05:45:30.090Z,28.9
2017-03-11T05:46:30.128Z,28.9
2017-03-11T05:47:30.176Z,28.9
2017-03-11T05:48:30.147Z,28.9
2017-03-11T05:49:30.230Z,28.8
2017-03-11T05:50:29.383Z,28.8
2017-03-11T05:51:30.327Z,28.8
2017-03-11T05:52:30.283Z,28.8
2017-03-11T05:53:29.231Z,28.8
2017-03-11T05:54:30.419Z,28.8
2017-03-11T05:55:29.343Z,28.8
2017-03-11T05:56:30.719Z,28.8
2017-03-11T05:57:29.444Z,28.8
2017-03-11T05:58:29.581Z,28.8
2017-03-11T05:59:30.631Z,28.8
2017-03-11T06:00:30.709Z,28.8
2017-03-11T06:01:29.729Z,28.8
2017-03-11T06:02:30.004Z,28.8
2017-03-11T06:03:30.794Z,28.8
2017-03-11T06:04:30.881Z,28.8
2017-03-11T06:05:30.859Z,28.8
2017-03-11T06:06:30.975Z,28.8
2017-03-11T06:07:30.012Z,28.8
2017-03-11T06:08:31.243Z,28.8
2017-03-11T06:09:31.160Z,28.8
2017-03-11T06:10:30.084Z,28.8
2017-03-11T06:11:30.119Z,28.8
2017-03-11T06:12:30.282Z,28.8
2017-03-11T06:13:31.434Z,28.8
2017-03-11T06:14:30.579Z,28.8
2017-03-11T06:15:31.381Z,28.8
2017-03-11T06:16:31.458Z,28.8
2017-03-11T06:17:31.421Z,28.8
2017-03-11T06:18:30.320Z,28.8
2017-03-11T06:19:30.516Z,28.8
2017-03-11T06:20:31.782Z,28.7
2017-03-11T06:21:31.646Z,28.7
2017-03-11T06:22:30.770Z,28.7
2017-03-11T06:23:30.829Z,28.7
2017-03-11T06:24:30.771Z,28.7
2017-03-11T06:25:31.970Z,28.7
2017-03-11T06:26:31.147Z,28.7
2017-03-11T06:27:32.021Z,28.7
2017-03-11T06:28:31.122Z,28.7
2017-03-11T06:29:32.181Z,28.7
2017-03-11T06:30:31.141Z,28.7
2017-03-11T06:31:31.099Z,28.6
2017-03-11T06:32:31.348Z,28.6
2017-03-11T06:33:31.348Z,28.6
2017-03-11T06:34:31.449Z,28.6
2017-03-11T06:35:32.546Z,28.6
2017-03-11T06:36:31.502Z,28.6
2017-03-11T06:37:31.504Z,28.6
2017-03-11T06:38:31.819Z,28.5
2017-03-11T06:39:31.622Z,28.5
2017-03-11T06:40:31.762Z,28.5
2017-03-11T06:41:32.715Z,28.5
2017-03-11T06:42:31.723Z,28.5
2017-03-11T06:43:32.883Z,28.5
2017-03-11T06:44:33.162Z,28.5
2017-03-11T06:45:31.966Z,28.5
2017-03-11T06:46:33.119Z,28.4
2017-03-11T06:47:33.233Z,28.4
2017-03-11T06:48:33.318Z,28.4
2017-03-11T06:49:33.379Z,28.3
2017-03-11T06:50:33.528Z,28.3
2017-03-11T06:51:32.355Z,28.3
2017-03-11T06:52:32.409Z,28.3
2017-03-11T06:53:33.485Z,28.3
2017-03-11T06:54:32.497Z,28.3
2017-03-11T06:55:32.520Z,28.2
2017-03-11T06:56:32.878Z,28.2
2017-03-11T06:57:33.561Z,28.2
2017-03-11T06:58:33.761Z,28.2
2017-03-11T06:59:33.847Z,28.2
2017-03-11T07:00:32.722Z,28.2
2017-03-11T07:01:32.830Z,28.2
2017-03-11T07:02:33.101Z,28.2
2017-03-11T07:03:33.076Z,28.2
2017-03-11T07:04:33.048Z,28.2
2017-03-11T07:05:33.216Z,28.2
2017-03-11T07:06:34.307Z,28.1
2017-03-11T07:07:33.243Z,28.1
2017-03-11T07:08:34.559Z,28.1
2017-03-11T07:09:34.561Z,28
2017-03-11T07:10:33.447Z,28
2017-03-11T07:11:34.652Z,28
2017-03-11T07:12:34.684Z,28
2017-03-11T07:13:33.836Z,27.9
2017-03-11T07:14:34.817Z,27.9
2017-03-11T07:15:34.938Z,27.9
2017-03-11T07:16:34.915Z,27.8
2017-03-11T07:17:33.905Z,27.8
2017-03-11T07:18:35.102Z,27.8
2017-03-11T07:19:34.398Z,27.8
2017-03-11T07:20:35.202Z,27.7
2017-03-11T07:21:35.133Z,27.7
2017-03-11T07:22:34.128Z,27.7
2017-03-11T07:23:34.224Z,27.7
2017-03-11T07:24:34.376Z,27.6
2017-03-11T07:25:35.575Z,27.6
2017-03-11T07:26:34.409Z,27.6
2017-03-11T07:27:34.349Z,27.6
2017-03-11T07:28:35.537Z,27.5
2017-03-11T07:29:34.427Z,27.5
2017-03-11T07:30:34.503Z,27.5
2017-03-11T07:31:35.850Z,27.5
2017-03-11T07:32:35.695Z,27.4
2017-03-11T07:33:35.676Z,27.4
2017-03-11T07:34:34.651Z,27.4
2017-03-11T07:35:34.702Z,27.4
2017-03-11T07:36:34.763Z,27.4
2017-03-11T07:37:35.935Z,27.4
2017-03-11T07:38:34.883Z,27.3
2017-03-11T07:39:34.858Z,27.3
2017-03-11T07:40:36.096Z,27.3
2017-03-11T07:41:34.998Z,27.3
2017-03-11T07:42:36.246Z,27.2
2017-03-11T07:43:36.382Z,27.2
2017-03-11T07:44:35.241Z,27.2
2017-03-11T07:45:36.419Z,27.1
2017-03-11T07:46:36.459Z,27.1
2017-03-11T07:47:35.341Z,27.2
2017-03-11T07:48:35.337Z,27.2
2017-03-11T07:49:36.912Z,27.3
2017-03-11T07:50:36.589Z,27.3
2017-03-11T07:51:35.716Z,27.3
2017-03-11T07:52:35.769Z,27.4
2017-03-11T07:53:35.792Z,27.4
2017-03-11T07:54:35.795Z,27.4
2017-03-11T07:55:36.878Z,27.5
2017-03-11T07:56:35.865Z,27.5
2017-03-11T07:57:35.907Z,27.5
2017-03-11T07:58:35.848Z,27.5
2017-03-11T07:59:35.915Z,27.5
2017-03-11T08:00:37.170Z,27.5
2017-03-11T08:01:37.235Z,27.6
2017-03-11T08:02:36.253Z,27.6
2017-03-11T08:03:37.357Z,27.5
2017-03-11T08:04:37.363Z,27.5
2017-03-11T08:05:36.324Z,27.5
2017-03-11T08:06:36.436Z,27.5
2017-03-11T08:07:36.352Z,27.5
2017-03-11T08:08:37.521Z,27.4
2017-03-11T08:09:37.582Z,27.4
2017-03-11T08:10:36.611Z,27.3
2017-03-11T08:11:36.575Z,27.3
2017-03-11T08:12:36.549Z,27.2
2017-03-11T08:13:36.566Z,27.1
2017-03-11T08:14:37.669Z,27
2017-03-11T08:15:36.708Z,26.8
2017-03-11T08:16:36.687Z,26.6
2017-03-11T08:17:36.663Z,26.4
2017-03-11T08:18:36.935Z,26.2
2017-03-11T08:19:36.765Z,26.1
2017-03-11T08:20:37.930Z,26
2017-03-11T08:21:37.942Z,25.9
2017-03-11T08:22:36.911Z,25.8
2017-03-11T08:23:37.890Z,25.8
2017-03-11T08:24:38.077Z,25.8
2017-03-11T08:25:38.054Z,25.8
2017-03-11T08:26:37.045Z,25.9
2017-03-11T08:27:38.147Z,26.1
2017-03-11T08:28:38.243Z,26.1
2017-03-11T08:29:37.189Z,26.2
2017-03-11T08:30:38.244Z,26.3
2017-03-11T08:31:38.339Z,26.3
2017-03-11T08:32:37.442Z,26.4
2017-03-11T08:33:38.494Z,26.4
2017-03-11T08:34:37.581Z,26.4
2017-03-11T08:35:38.589Z,26.4
2017-03-11T08:36:37.579Z,26.5
2017-03-11T08:37:38.809Z,26.5
2017-03-11T08:38:37.782Z,26.5
2017-03-11T08:39:38.791Z,26.6
2017-03-11T08:40:37.863Z,26.7
2017-03-11T08:41:37.881Z,26.7
2017-03-11T08:42:37.929Z,26.8
2017-03-11T08:43:39.013Z,26.8
2017-03-11T08:44:39.134Z,26.9
2017-03-11T08:45:38.008Z,26.9
2017-03-11T08:46:39.203Z,27
2017-03-11T08:47:38.102Z,27.1
2017-03-11T08:48:38.101Z,27.1
2017-03-11T08:49:39.319Z,27.1
2017-03-11T08:50:39.376Z,27.2
2017-03-11T08:51:38.264Z,27.2
2017-03-11T08:52:38.320Z,27.2
2017-03-11T08:53:38.369Z,27.3
2017-03-11T08:54:38.406Z,27.3
2017-03-11T08:55:38.529Z,27.3
2017-03-11T08:56:38.598Z,27.3
2017-03-11T08:57:38.487Z,27.3
2017-03-11T08:58:39.643Z,27.3
2017-03-11T08:59:39.755Z,27.4
2017-03-11T09:00:39.777Z,27.4
2017-03-11T09:01:39.875Z,27.4
2017-03-11T09:02:38.850Z,27.4
2017-03-11T09:03:38.841Z,27.4
2017-03-11T09:04:38.872Z,27.4
2017-03-11T09:05:40.000Z,27.5
2017-03-11T09:06:38.989Z,27.5
2017-03-11T09:07:40.239Z,27.5
2017-03-11T09:08:40.216Z,27.5
2017-03-11T09:09:39.176Z,27.5
2017-03-11T09:10:39.200Z,27.5
2017-03-11T09:11:39.268Z,27.5
2017-03-11T09:12:39.450Z,27.5
2017-03-11T09:13:40.525Z,27.5
2017-03-11T09:14:40.536Z,27.5
2017-03-11T09:15:40.552Z,27.5
2017-03-11T09:16:40.572Z,27.6
2017-03-11T09:17:40.667Z,27.6
2017-03-11T09:18:39.621Z,27.6
2017-03-11T09:19:40.682Z,27.6
2017-03-11T09:20:39.713Z,27.6
2017-03-11T09:21:40.780Z,27.6
2017-03-11T09:22:39.791Z,27.6
2017-03-11T09:23:39.804Z,27.6
2017-03-11T09:24:41.017Z,27.6
2017-03-11T09:25:40.976Z,27.6
2017-03-11T09:26:41.063Z,27.7
2017-03-11T09:27:40.076Z,27.7
2017-03-11T09:28:41.179Z,27.7
2017-03-11T09:29:40.173Z,27.7
2017-03-11T09:30:41.314Z,27.7
2017-03-11T09:31:40.315Z,27.7
2017-03-11T09:32:40.217Z,27.7
2017-03-11T09:33:41.374Z,27.7
2017-03-11T09:34:40.352Z,27.7
2017-03-11T09:35:40.411Z,27.7
2017-03-11T09:36:40.430Z,27.7
2017-03-11T09:37:41.601Z,27.8
2017-03-11T09:38:41.690Z,27.8
2017-03-11T09:39:41.681Z,27.8
2017-03-11T09:40:40.686Z,27.8
2017-03-11T09:41:40.619Z,27.8
2017-03-11T09:42:41.801Z,27.8
2017-03-11T09:43:41.787Z,27.8
2017-03-11T09:44:41.927Z,27.8
2017-03-11T09:45:41.937Z,27.8
2017-03-11T09:46:41.001Z,27.8
2017-03-11T09:47:40.997Z,27.8
2017-03-11T09:48:41.968Z,27.8
2017-03-11T09:49:42.068Z,27.8
2017-03-11T09:50:42.073Z,27.8
2017-03-11T09:51:42.156Z,27.8
2017-03-11T09:52:41.164Z,27.8
2017-03-11T09:53:42.165Z,27.8
2017-03-11T09:54:42.235Z,27.8
2017-03-11T09:55:41.226Z,27.8
2017-03-11T09:56:41.411Z,27.8
2017-03-11T09:57:42.515Z,27.8
2017-03-11T09:58:41.526Z,27.8
2017-03-11T09:59:42.593Z,27.8
2017-03-11T10:00:41.559Z,27.8
2017-03-11T10:01:42.658Z,27.8
2017-03-11T10:02:41.721Z,27.8
2017-03-11T10:03:42.812Z,27.8
2017-03-11T10:04:42.848Z,27.8
2017-03-11T10:05:42.424Z,27.8
2017-03-11T10:06:43.704Z,27.8
2017-03-11T10:07:43.118Z,27.8
2017-03-11T10:08:42.020Z,27.8
2017-03-11T10:09:42.078Z,27.8
2017-03-11T10:10:43.243Z,27.8
2017-03-11T10:11:43.168Z,27.8
2017-03-11T10:12:42.206Z,27.9
2017-03-11T10:13:45.361Z,27.9
2017-03-11T10:14:42.224Z,27.9
2017-03-11T10:15:43.346Z,27.9
2017-03-11T10:16:42.318Z,27.9
2017-03-11T10:17:43.411Z,27.9
2017-03-11T10:18:42.456Z,27.9
2017-03-11T10:19:42.391Z,27.9
2017-03-11T10:20:43.505Z,27.9
2017-03-11T10:21:43.580Z,27.9
2017-03-11T10:22:43.705Z,27.9
2017-03-11T10:23:43.955Z,27.9
2017-03-11T10:24:42.804Z,27.9
2017-03-11T10:25:43.825Z,27.9
2017-03-11T10:26:43.986Z,27.9
2017-03-11T10:27:44.037Z,27.9
2017-03-11T10:28:44.165Z,27.9
2017-03-11T10:29:44.287Z,27.9
2017-03-11T10:30:44.123Z,27.9
2017-03-11T10:31:43.212Z,27.9
2017-03-11T10:32:44.284Z,27.9
2017-03-11T10:33:43.208Z,27.9
2017-03-11T10:34:44.460Z,27.9
2017-03-11T10:35:43.608Z,27.9
2017-03-11T10:36:43.397Z,27.9
2017-03-11T10:37:44.594Z,27.9
2017-03-11T10:38:44.658Z,27.9
2017-03-11T10:39:43.643Z,27.9
2017-03-11T10:40:44.874Z,27.9
2017-03-11T10:41:43.738Z,27.9
2017-03-11T10:42:44.901Z,27.9
2017-03-11T10:43:44.895Z,27.9
2017-03-11T10:44:44.894Z,27.9
2017-03-11T10:45:44.023Z,27.9
2017-03-11T10:46:44.356Z,27.9
2017-03-11T10:47:45.124Z,27.9
2017-03-11T10:48:44.202Z,27.9
2017-03-11T10:49:45.320Z,27.9
2017-03-11T10:50:44.251Z,27.9
2017-03-11T10:51:44.238Z,27.9
2017-03-11T10:52:44.665Z,27.9
2017-03-11T10:53:44.325Z,27.9
2017-03-11T10:54:44.438Z,27.9
2017-03-11T10:55:45.514Z,27.9
2017-03-11T10:56:45.623Z,27.9
2017-03-11T10:57:44.649Z,27.9
2017-03-11T10:58:44.754Z,27.9
2017-03-11T10:59:44.679Z,27.9
2017-03-11T11:00:44.693Z,27.9
2017-03-11T11:01:45.958Z,27.9
2017-03-11T11:02:45.937Z,27.9
2017-03-11T11:03:45.600Z,27.9
2017-03-11T11:04:46.121Z,27.9
2017-03-11T11:05:45.077Z,27.9
2017-03-11T11:06:45.025Z,27.9
2017-03-11T11:07:46.167Z,27.9
2017-03-11T11:08:46.314Z,27.9
2017-03-11T11:09:45.299Z,27.8
2017-03-11T11:10:45.492Z,27.9
2017-03-11T11:11:46.466Z,27.9
2017-03-11T11:12:46.411Z,27.9
2017-03-11T11:13:46.472Z,27.9
2017-03-11T11:14:48.068Z,27.9
2017-03-11T11:15:46.566Z,27.9
2017-03-11T11:16:46.768Z,27.9
2017-03-11T11:17:46.588Z,27.9
2017-03-11T11:18:46.401Z,27.9
2017-03-11T11:19:46.254Z,27.9
2017-03-11T11:20:45.796Z,27.9
2017-03-11T11:21:46.817Z,27.9
2017-03-11T11:22:45.874Z,27.9
2017-03-11T11:23:46.959Z,27.9
2017-03-11T11:24:45.792Z,27.9
2017-03-11T11:25:47.000Z,27.9
2017-03-11T11:26:46.033Z,27.9
2017-03-11T11:27:46.123Z,27.9
2017-03-11T11:28:47.107Z,27.9
2017-03-11T11:29:46.957Z,27.9
2017-03-11T11:30:47.074Z,27.9
2017-03-11T11:31:45.992Z,27.9
2017-03-11T11:32:47.125Z,27.9
2017-03-11T11:33:47.206Z,27.9
2017-03-11T11:34:46.140Z,27.9
2017-03-11T11:35:47.249Z,27.9
2017-03-11T11:36:47.287Z,27.9
2017-03-11T11:37:46.330Z,27.9
2017-03-11T11:38:46.346Z,27.9
2017-03-11T11:39:47.860Z,27.9
2017-03-11T11:40:46.369Z,27.9
2017-03-11T11:41:47.498Z,27.9
2017-03-11T11:42:46.383Z,27.9
2017-03-11T11:43:47.544Z,27.9
2017-03-11T11:44:48.982Z,27.9
2017-03-11T11:45:46.530Z,27.9
2017-03-11T11:46:46.535Z,27.9
2017-03-11T11:47:47.638Z,27.9
2017-03-11T11:48:47.678Z,27.9
2017-03-11T11:49:47.809Z,27.9
2017-03-11T11:50:46.798Z,27.9
2017-03-11T11:51:46.838Z,27.9
2017-03-11T11:52:47.882Z,27.9
2017-03-11T11:53:46.770Z,27.9
2017-03-11T11:54:46.886Z,27.9
2017-03-11T11:55:48.000Z,27.9
2017-03-11T11:56:46.948Z,27.9
2017-03-11T11:57:47.052Z,27.9
2017-03-11T11:58:48.180Z,27.9
2017-03-11T11:59:47.114Z,27.9
2017-03-11T12:00:47.189Z,27.9
2017-03-11T12:01:48.289Z,27.9
2017-03-11T12:02:47.279Z,27.9
2017-03-11T12:03:51.003Z,27.9
2017-03-11T12:04:48.352Z,27.9
2017-03-11T12:05:48.393Z,27.9
2017-03-11T12:06:47.355Z,27.9
2017-03-11T12:07:48.508Z,27.9
2017-03-11T12:08:48.592Z,27.9
2017-03-11T12:09:48.597Z,27.9
2017-03-11T12:10:48.630Z,27.9
2017-03-11T12:11:47.599Z,27.9
2017-03-11T12:12:47.635Z,27.9
2017-03-11T12:13:48.697Z,27.9
2017-03-11T12:14:49.397Z,27.9
2017-03-11T12:15:48.824Z,27.9
2017-03-11T12:16:47.825Z,27.9
2017-03-11T12:17:47.819Z,27.9
2017-03-11T12:18:47.744Z,27.9
2017-03-11T12:19:47.813Z,27.9
2017-03-11T12:20:47.940Z,27.9
2017-03-11T12:21:49.032Z,28
2017-03-11T12:22:49.194Z,27.9
2017-03-11T12:23:48.133Z,27.9
2017-03-11T12:24:48.217Z,28
2017-03-11T12:25:48.234Z,27.9
2017-03-11T12:26:49.386Z,27.9
2017-03-11T12:27:49.457Z,27.9
2017-03-11T12:28:49.564Z,27.9
2017-03-11T12:29:49.530Z,27.9
2017-03-11T12:30:49.565Z,27.9
2017-03-11T12:31:48.568Z,27.9
2017-03-11T12:32:49.741Z,27.9
2017-03-11T12:33:48.764Z,27.9
2017-03-11T12:34:48.889Z,27.9
2017-03-11T12:35:49.474Z,27.9
2017-03-11T12:36:50.097Z,27.9
2017-03-11T12:37:50.172Z,27.9
2017-03-11T12:38:49.187Z,27.9
2017-03-11T12:39:50.280Z,27.9
2017-03-11T12:40:49.191Z,27.9
2017-03-11T12:41:50.261Z,28
2017-03-11T12:42:49.206Z,27.9
2017-03-11T12:43:49.323Z,27.9
2017-03-11T12:44:50.544Z,27.9
2017-03-11T12:45:49.397Z,27.9
2017-03-11T12:46:50.583Z,27.9
2017-03-11T12:47:49.521Z,27.9
2017-03-11T12:48:50.682Z,27.9
2017-03-11T12:49:50.729Z,27.9
2017-03-11T12:50:49.822Z,27.9
2017-03-11T12:51:49.731Z,27.9
2017-03-11T12:52:49.703Z,27.9
2017-03-11T12:53:50.882Z,27.9
2017-03-11T12:54:49.903Z,27.9
2017-03-11T12:55:51.035Z,28
2017-03-11T12:56:51.936Z,27.9
2017-03-11T12:57:51.020Z,27.9
2017-03-11T12:58:50.090Z,27.9
2017-03-11T12:59:50.118Z,27.9
2017-03-11T13:00:51.273Z,27.9
2017-03-11T13:01:50.253Z,27.9
2017-03-11T13:02:50.472Z,27.9
2017-03-11T13:03:51.316Z,27.9
2017-03-11T13:04:50.440Z,27.9
2017-03-11T13:05:50.509Z,27.9
2017-03-11T13:06:50.457Z,27.9
2017-03-11T13:07:51.615Z,27.9
2017-03-11T13:08:51.882Z,27.9
2017-03-11T13:09:51.676Z,27.9
2017-03-11T13:10:50.694Z,27.9
2017-03-11T13:11:51.874Z,27.9
2017-03-11T13:12:51.577Z,27.9
2017-03-11T13:13:50.857Z,27.9
2017-03-11T13:14:51.136Z,27.9
2017-03-11T13:15:52.117Z,27.9
2017-03-11T13:16:52.150Z,27.9
2017-03-11T13:17:52.159Z,27.9
2017-03-11T13:18:51.160Z,27.9
2017-03-11T13:19:52.171Z,27.9
2017-03-11T13:20:51.390Z,27.9
2017-03-11T13:21:51.199Z,27.9
2017-03-11T13:22:52.326Z,27.8
2017-03-11T13:23:51.339Z,27.9
2017-03-11T13:24:52.332Z,27.8
2017-03-11T13:25:52.422Z,27.8
2017-03-11T13:26:51.628Z,27.8